Time;durP1;ratioP1;P1;durP2;ratioP2;P2;SDS_P1;SDS_P2;PMS_P1;PMS_P2;Temp;Humidity;BMP_temperature;BMP_pressure;BME280_temperature;BME280_humidity;BME280_pressure;Samples;Min_cycle;Max_cycle;Signal;HPM_P1;HPM_P2
2022/04/18 00:00:28;;;;;;;;;12.50;9.75;;;;;15.55;38.50;98836.59;4866204;28;102143;-81
2022/04/18 00:02:55;;;;;;;;;11.75;9.50;;;;;15.55;38.64;98836.59;4863599;28;104122;-81
2022/04/18 00:05:22;;;;;;;;;10.50;9.75;;;;;15.54;38.36;98833.00;4865805;28;102039;-81
2022/04/18 00:07:48;;;;;;;;;13.00;11.00;;;;;15.54;38.40;98829.47;4864169;28;102744;-81
2022/04/18 00:10:16;;;;;;;;;10.25;10.00;;;;;15.54;38.25;98824.84;4866126;28;102670;-81
2022/04/18 00:12:44;;;;;;;;;9.50;8.00;;;;;15.54;38.25;98821.28;4865508;28;104059;-81
2022/04/18 00:15:11;;;;;;;;;10.00;9.00;;;;;15.53;38.35;98816.91;4863516;28;102458;-81
2022/04/18 00:17:38;;;;;;;;;13.25;11.00;;;;;15.54;38.40;98813.94;4865429;28;102526;-81
2022/04/18 00:20:05;;;;;;;;;14.00;12.25;;;;;15.50;38.40;98811.88;4866537;28;102300;-81
2022/04/18 00:22:32;;;;;;;;;13.25;11.50;;;;;15.45;38.29;98807.09;4865526;28;103770;-81
2022/04/18 00:24:59;;;;;;;;;12.00;10.75;;;;;15.43;38.52;98803.78;4864853;28;102226;-81
2022/04/18 00:27:26;;;;;;;;;11.50;11.00;;;;;15.40;38.59;98809.66;4865149;28;102636;-81
2022/04/18 00:29:54;;;;;;;;;12.50;11.75;;;;;15.39;38.48;98808.03;4866385;28;102209;-81
2022/04/18 00:32:20;;;;;;;;;12.75;12.75;;;;;15.39;38.37;98802.56;4865295;28;102931;-81
2022/04/18 00:34:47;;;;;;;;;15.00;12.00;;;;;15.41;38.73;98800.44;4848591;28;102102;-81
2022/04/18 00:37:17;;;;;;;;;17.25;13.00;;;;;15.46;38.41;98803.31;4868327;28;102526;-81
2022/04/18 00:39:44;;;;;;;;;11.25;10.25;;;;;15.45;38.19;98787.19;4870995;28;102486;-81
2022/04/18 00:42:11;;;;;;;;;15.00;12.25;;;;;15.44;38.41;98785.53;4867787;28;104074;-81
2022/04/18 00:44:37;;;;;;;;;10.00;10.00;;;;;15.44;37.96;98788.28;4869292;28;102217;-81
2022/04/18 00:47:05;;;;;;;;;14.50;12.25;;;;;15.43;38.60;98789.31;4868940;28;102016;-81
2022/04/18 00:49:34;;;;;;;;;13.25;11.25;;;;;15.41;38.16;98789.53;4869928;28;102354;-81
2022/04/18 00:52:03;;;;;;;;;15.00;12.50;;;;;15.40;38.43;98776.16;4847025;28;103557;-81
2022/04/18 00:54:31;;;;;;;;;13.00;13.00;;;;;15.41;38.52;98775.06;4869660;28;103623;-81
2022/04/18 00:56:58;;;;;;;;;18.25;13.25;;;;;15.43;38.27;98778.41;4856334;28;102206;-81
2022/04/18 00:59:25;;;;;;;;;18.00;12.00;;;;;15.43;38.32;98765.63;4856076;28;102493;-81
2022/04/18 01:01:52;;;;;;;;;18.25;14.00;;;;;15.40;38.21;98768.00;4868560;28;104106;-81
2022/04/18 01:04:19;;;;;;;;;18.25;13.50;;;;;15.36;38.27;98762.13;4872408;28;101991;-81
2022/04/18 01:06:46;;;;;;;;;16.75;13.25;;;;;15.33;38.48;98754.44;4867495;28;102265;-81
2022/04/18 01:09:12;;;;;;;;;14.00;12.00;;;;;15.32;38.47;98757.38;4872981;28;102334;-81
2022/04/18 01:11:40;;;;;;;;;17.75;14.75;;;;;15.30;38.26;98752.16;4872502;28;104085;-81
2022/04/18 01:14:06;;;;;;;;;14.50;13.75;;;;;15.28;38.53;98754.28;4871245;28;102686;-81
2022/04/18 01:16:33;;;;;;;;;15.00;14.00;;;;;15.33;38.28;98745.41;4872226;28;102612;-81
2022/04/18 01:19:00;;;;;;;;;16.75;14.50;;;;;15.33;38.08;98735.34;4872905;28;103527;-81
2022/04/18 01:21:27;;;;;;;;;14.00;13.50;;;;;15.34;38.23;98738.91;4864299;28;104071;-81
2022/04/18 01:23:54;;;;;;;;;16.25;13.00;;;;;15.32;38.69;98733.69;4853810;28;102476;-81
2022/04/18 01:29:07;;;;;;;;;18.25;15.75;;;;;15.35;38.11;98732.41;4872240;28;102377;-81
2022/04/18 01:31:35;;;;;;;;;18.00;16.50;;;;;15.34;38.13;98736.19;4872697;28;104085;-81
2022/04/18 01:34:04;;;;;;;;;15.50;14.00;;;;;15.31;38.20;98731.22;4871283;28;102492;-81
2022/04/18 01:36:31;;;;;;;;;18.75;17.75;;;;;15.31;38.22;98731.22;4866778;28;104180;-81
2022/04/18 01:38:58;;;;;;;;;16.50;15.25;;;;;15.33;38.19;98726.34;4855899;28;102405;-81
2022/04/18 01:41:24;;;;;;;;;15.75;15.50;;;;;15.33;38.21;98723.63;4871464;28;104173;-81
2022/04/18 01:43:51;;;;;;;;;19.75;16.00;;;;;15.33;38.36;98731.78;4868178;28;102077;-81
2022/04/18 01:46:18;;;;;;;;;21.75;19.50;;;;;15.26;38.27;98726.44;4870799;28;103760;-81
2022/04/18 01:48:47;;;;;;;;;16.50;15.25;;;;;15.22;38.12;98722.47;4873527;28;102270;-81
2022/04/18 01:51:14;;;;;;;;;21.25;16.75;;;;;15.20;38.29;98719.16;4847542;28;104228;-81
2022/04/18 01:53:41;;;;;;;;;18.00;16.00;;;;;15.18;38.31;98711.22;4854592;28;102378;-81
2022/04/18 01:56:08;;;;;;;;;21.75;18.50;;;;;15.17;38.54;98715.00;4869760;28;102274;-81
2022/04/18 01:58:35;;;;;;;;;19.00;19.00;;;;;15.19;38.39;98709.31;4872789;28;102097;-81
2022/04/18 02:01:02;;;;;;;;;16.00;14.75;;;;;15.19;38.39;98704.72;4870752;28;105567;-81
2022/04/18 02:03:29;;;;;;;;;19.75;16.75;;;;;15.23;38.18;98709.69;4873044;28;102470;-81
2022/04/18 02:05:56;;;;;;;;;17.50;16.25;;;;;15.24;38.17;98703.19;4865545;28;102529;-82
2022/04/18 02:08:23;;;;;;;;;20.75;19.00;;;;;15.24;37.87;98703.19;4869050;28;102537;-81
2022/04/18 02:10:50;;;;;;;;;19.50;17.25;;;;;15.24;37.98;98700.47;4853801;28;104246;-81
2022/04/18 02:13:17;;;;;;;;;17.00;15.25;;;;;15.24;38.11;98695.03;4871467;28;102070;-81
2022/04/18 02:15:44;;;;;;;;;21.50;20.25;;;;;15.22;38.45;98697.16;4870795;28;102016;-81
2022/04/18 02:18:11;;;;;;;;;21.75;20.50;;;;;15.23;38.04;98698.81;4872912;28;102474;-81
2022/04/18 02:20:37;;;;;;;;;17.25;17.25;;;;;15.24;38.35;98689.56;4869249;28;104090;-81
2022/04/18 02:23:04;;;;;;;;;20.00;18.25;;;;;15.22;38.07;98686.25;4866940;28;102099;-81
2022/04/18 02:25:31;;;;;;;;;18.75;15.00;;;;;15.22;38.12;98686.25;4870245;28;102178;-81
2022/04/18 02:27:58;;;;;;;;;20.00;17.50;;;;;15.20;37.95;98681.03;4872223;28;102540;-81
2022/04/18 02:30:25;;;;;;;;;19.00;16.00;;;;;15.15;38.35;98678.16;4847896;28;104396;-81
2022/04/18 02:32:52;;;;;;;;;21.25;19.25;;;;;15.11;38.01;98677.78;4868269;28;102387;-81
2022/04/18 02:35:20;;;;;;;;;26.75;21.00;;;;;15.10;38.02;98678.84;4870933;28;102232;-81
2022/04/18 02:37:47;;;;;;;;;24.25;18.25;;;;;15.09;38.35;98682.63;4850099;28;104088;-81
2022/04/18 02:40:14;;;;;;;;;23.25;19.00;;;;;15.09;38.35;98674.44;4868587;28;104071;-81
2022/04/18 02:42:42;;;;;;;;;21.50;19.75;;;;;15.12;38.38;98675.91;4870209;28;102142;-81
2022/04/18 02:45:10;;;;;;;;;19.50;17.25;;;;;15.14;38.39;98676.50;4849720;28;102120;-81
2022/04/18 02:47:37;;;;;;;;;22.75;19.75;;;;;15.15;37.81;98670.00;4871019;28;102262;-81
2022/04/18 02:50:05;;;;;;;;;25.25;20.75;;;;;15.17;37.92;98670.59;4871002;28;104109;-81
2022/04/18 02:52:32;;;;;;;;;20.00;19.00;;;;;15.20;38.37;98670.13;4862787;28;102944;-81
2022/04/18 02:54:59;;;;;;;;;21.00;17.75;;;;;15.24;38.36;98676.78;4853120;28;102193;-81
2022/04/18 02:57:26;;;;;;;;;24.75;20.25;;;;;15.23;37.94;98666.13;4872550;28;102266;-81
2022/04/18 02:59:53;;;;;;;;;20.25;19.00;;;;;15.22;38.28;98673.44;4870674;28;104336;-81
2022/04/18 03:02:20;;;;;;;;;22.25;19.25;;;;;15.23;37.69;98668.84;4870272;28;102540;-81
2022/04/18 03:04:47;;;;;;;;;26.75;22.25;;;;;15.27;38.10;98670.03;4870175;28;102004;-81
2022/04/18 03:07:13;;;;;;;;;18.75;17.25;;;;;15.24;38.02;98665.91;4863606;28;102252;-81
2022/04/18 03:09:40;;;;;;;;;26.00;21.25;;;;;15.22;37.83;98662.56;4870494;28;104102;-81
2022/04/18 03:12:08;;;;;;;;;23.75;20.00;;;;;15.18;38.15;98661.34;4870717;28;102654;-81
2022/04/18 03:14:34;;;;;;;;;23.25;20.50;;;;;15.14;38.28;98660.97;4849474;28;102170;-81
2022/04/18 03:17:01;;;;;;;;;25.50;19.75;;;;;15.14;37.69;98654.69;4871739;28;102322;-81
2022/04/18 03:19:28;;;;;;;;;17.25;15.25;;;;;15.14;37.95;98658.25;4869099;28;104087;-81
2022/04/18 03:21:55;;;;;;;;;22.00;20.25;;;;;15.15;38.05;98656.38;4848375;28;104022;-81
2022/04/18 03:24:22;;;;;;;;;19.75;14.50;;;;;15.19;38.21;98658.41;4869023;28;102115;-81
2022/04/18 03:26:48;;;;;;;;;24.00;20.50;;;;;15.22;37.99;98651.66;4870105;28;102261;-81
2022/04/18 03:29:15;;;;;;;;;21.75;19.25;;;;;15.22;37.82;98650.84;4870191;28;104095;-81
2022/04/18 03:31:42;;;;;;;;;23.50;20.00;;;;;15.22;37.89;98650.84;4869919;28;101940;-81
2022/04/18 03:34:09;;;;;;;;;22.50;20.25;;;;;15.22;38.08;98645.41;4870591;28;102592;-81
2022/04/18 03:42:09;;;;;;;;;22.25;20.00;;;;;15.13;38.08;98642.13;4841670;28;103604;-81
2022/04/18 03:44:43;;;;;;;;;21.00;18.75;;;;;15.09;38.22;98636.31;4869869;28;102241;-81
2022/04/18 03:47:11;;;;;;;;;28.00;22.75;;;;;15.06;38.48;98639.50;4870387;28;102387;-81
2022/04/18 03:49:38;;;;;;;;;22.25;20.50;;;;;15.06;38.24;98630.50;4871002;28;104053;-81
2022/04/18 03:52:06;;;;;;;;;25.75;23.00;;;;;15.06;38.22;98636.78;4866022;28;102595;-81
2022/04/18 03:54:34;;;;;;;;;22.25;21.25;;;;;15.06;38.31;98633.22;4868246;28;102390;-81
2022/04/18 03:57:02;;;;;;;;;21.00;20.00;;;;;15.01;38.06;98633.91;4870119;28;102592;-81
2022/04/18 03:59:29;;;;;;;;;26.00;21.50;;;;;15.00;38.39;98637.69;4870341;28;104094;-81
2022/04/18 04:01:56;;;;;;;;;22.50;21.00;;;;;14.99;38.21;98637.94;4852511;28;102601;-81
2022/04/18 04:04:23;;;;;;;;;26.75;22.75;;;;;14.99;37.79;98657.84;4870681;28;102306;-81
2022/04/18 04:06:50;;;;;;;;;21.00;19.25;;;;;14.98;37.98;98652.63;4869481;28;103578;-81
2022/04/18 04:09:16;;;;;;;;;26.75;24.00;;;;;14.97;37.83;98653.66;4865530;28;104066;-81
2022/04/18 04:11:43;;;;;;;;;20.00;18.50;;;;;14.98;37.96;98655.34;4869204;28;104280;-81
2022/04/18 04:14:10;;;;;;;;;25.50;19.25;;;;;14.96;38.20;98641.94;4870101;28;102908;-81
2022/04/18 04:16:40;;;;;;;;;26.25;21.00;;;;;14.98;38.38;98644.44;4853538;28;102253;-81
2022/04/18 04:19:07;;;;;;;;;24.25;22.00;;;;;14.96;38.41;98636.50;4869144;28;104055;-81
2022/04/18 04:21:35;;;;;;;;;18.25;16.75;;;;;14.96;38.49;98636.50;4870371;28;103069;-81
2022/04/18 04:24:02;;;;;;;;;21.75;20.00;;;;;14.94;38.55;98627.75;4865549;28;103145;-81
2022/04/18 04:26:29;;;;;;;;;25.50;22.25;;;;;14.92;37.94;98635.28;4853703;28;102585;-81
2022/04/18 04:28:56;;;;;;;;;26.50;23.00;;;;;14.92;38.11;98634.44;4833776;28;104097;-81
2022/04/18 04:31:23;;;;;;;;;24.25;21.75;;;;;14.90;38.24;98626.53;4874197;28;102027;-81
2022/04/18 04:33:50;;;;;;;;;26.00;23.00;;;;;14.89;38.58;98630.31;4873135;28;102214;-81
2022/04/18 04:36:17;;;;;;;;;20.50;19.00;;;;;14.88;37.99;98627.81;4875003;28;102534;-81
2022/04/18 04:38:44;;;;;;;;;22.75;21.50;;;;;14.88;37.73;98622.38;4867935;28;104273;-81
2022/04/18 04:41:11;;;;;;;;;24.25;21.50;;;;;14.84;38.37;98626.59;4873845;28;102655;-81
2022/04/18 04:43:41;;;;;;;;;26.00;23.50;;;;;14.82;38.23;98626.81;4872546;28;102292;-81
2022/04/18 04:46:08;;;;;;;;;21.25;18.00;;;;;14.82;38.17;98618.66;4874666;28;102423;-81
2022/04/18 04:48:35;;;;;;;;;22.00;21.00;;;;;14.83;38.18;98619.50;4872980;28;104490;-81
2022/04/18 04:51:01;;;;;;;;;25.75;22.75;;;;;14.84;38.48;98622.00;4873414;28;102190;-81
2022/04/18 04:53:28;;;;;;;;;24.25;22.25;;;;;14.85;38.47;98611.94;4864455;28;103547;-81
2022/04/18 04:55:55;;;;;;;;;23.50;20.25;;;;;14.85;37.87;98623.66;4857363;28;102752;-81
2022/04/18 04:58:22;;;;;;;;;20.25;19.00;;;;;14.87;37.95;98621.53;4872176;28;103989;-81
2022/04/18 05:00:49;;;;;;;;;23.00;21.75;;;;;14.90;38.15;98626.53;4873170;28;103307;-81
2022/04/18 05:03:16;;;;;;;;;24.75;22.25;;;;;14.90;38.08;98628.41;4872709;28;102230;-81
2022/04/18 05:05:43;;;;;;;;;25.25;22.25;;;;;14.89;38.15;98630.31;4875129;28;102280;-82
2022/04/18 05:08:10;;;;;;;;;29.00;26.25;;;;;14.94;38.32;98616.84;4861991;28;104149;-81
2022/04/18 05:10:37;;;;;;;;;28.00;21.00;;;;;14.99;37.75;98618.88;4872760;28;102507;-81
2022/04/18 05:13:04;;;;;;;;;22.75;21.50;;;;;14.99;37.53;98617.00;4872766;28;102095;-81
2022/04/18 05:15:32;;;;;;;;;22.50;20.50;;;;;15.02;37.67;98619.25;4873565;28;102352;-81
2022/04/18 05:17:59;;;;;;;;;21.75;20.50;;;;;15.02;37.83;98619.25;4855044;28;104098;-81
2022/04/18 05:20:27;;;;;;;;;28.00;24.75;;;;;15.04;37.71;98624.47;4873506;28;102486;-81
2022/04/18 05:22:55;;;;;;;;;25.25;23.00;;;;;15.02;37.67;98621.13;4866461;28;102474;-81
2022/04/18 05:25:22;;;;;;;;;24.25;22.25;;;;;14.98;37.68;98628.94;4871365;28;102519;-81
2022/04/18 05:27:49;;;;;;;;;24.75;21.50;;;;;14.97;37.43;98616.38;4871425;28;105712;-81
2022/04/18 05:30:16;;;;;;;;;28.00;24.00;;;;;14.95;38.08;98623.94;4870716;28;102638;-81
2022/04/18 05:32:43;;;;;;;;;23.75;22.50;;;;;14.97;37.67;98627.28;4873032;28;102263;-81
2022/04/18 05:35:10;;;;;;;;;26.00;23.00;;;;;15.01;37.87;98625.75;4852650;28;102850;-81
2022/04/18 05:37:37;;;;;;;;;21.75;19.50;;;;;15.05;37.41;98626.94;4852674;28;104030;-81
2022/04/18 05:40:04;;;;;;;;;26.25;22.25;;;;;15.08;37.62;98629.22;4851618;28;102256;-81
2022/04/18 05:42:31;;;;;;;;;26.25;23.75;;;;;15.09;37.28;98627.31;4871073;28;102040;-81
2022/04/18 05:44:58;;;;;;;;;23.75;22.25;;;;;15.11;37.92;98626.03;4857263;28;102503;-81
2022/04/18 05:47:25;;;;;;;;;27.75;24.75;;;;;15.13;37.81;98621.19;4871825;28;104140;-81
2022/04/18 05:49:51;;;;;;;;;16.50;15.00;;;;;15.13;37.89;98618.47;4872958;28;102186;-81
2022/04/18 05:52:18;;;;;;;;;23.00;21.00;;;;;15.14;37.81;98628.31;4870560;28;102456;-81
2022/04/18 05:54:45;;;;;;;;;26.75;22.25;;;;;15.15;37.85;98613.63;4850760;28;102817;-81
2022/04/18 06:00:53;;;;;;;;;26.25;21.75;;;;;15.19;37.78;98622.16;4867642;28;102014;-81
2022/04/18 06:03:20;;;;;;;;;26.50;22.50;;;;;15.19;37.24;98625.72;4870730;28;102540;-81
2022/04/18 06:05:46;;;;;;;;;24.50;21.75;;;;;15.19;37.74;98624.88;4872765;28;102232;-81
2022/04/18 06:08:13;;;;;;;;;26.75;22.50;;;;;15.17;37.70;98625.09;4868485;28;104087;-81
2022/04/18 06:10:41;;;;;;;;;25.50;22.25;;;;;15.12;37.34;98622.28;4852882;28;102181;-81
2022/04/18 06:13:09;;;;;;;;;23.00;17.75;;;;;15.15;37.66;98629.97;4871832;28;102262;-81
2022/04/18 06:15:37;;;;;;;;;24.25;22.75;;;;;15.16;37.49;98625.38;4871436;28;102712;-81
2022/04/18 06:18:04;;;;;;;;;24.50;21.00;;;;;15.18;37.54;98623.22;4871112;28;104061;-81
2022/04/18 06:20:30;;;;;;;;;26.00;22.00;;;;;15.20;37.55;98626.56;4872458;28;102212;-81
2022/04/18 06:22:57;;;;;;;;;23.00;18.75;;;;;15.22;37.62;98618.16;4869363;28;102216;-81
2022/04/18 06:25:24;;;;;;;;;22.75;20.50;;;;;15.23;37.55;98612.47;4869082;28;102418;-81
2022/04/18 06:27:51;;;;;;;;;27.50;22.50;;;;;15.25;37.43;98613.09;4870910;28;104141;-81
2022/04/18 06:30:18;;;;;;;;;27.00;24.25;;;;;15.27;37.51;98618.28;4872320;28;101998;-81
2022/04/18 06:32:44;;;;;;;;;25.00;23.75;;;;;15.25;37.70;98607.63;4870863;28;102218;-81
2022/04/18 06:35:11;;;;;;;;;24.75;21.75;;;;;15.27;37.26;98610.09;4872291;28;102689;-81
2022/04/18 06:37:38;;;;;;;;;26.00;24.00;;;;;15.29;37.20;98613.44;4870646;28;103496;-81
2022/04/18 06:40:06;;;;;;;;;23.75;21.25;;;;;15.29;37.61;98625.19;4863973;28;102382;-81
2022/04/18 06:42:36;;;;;;;;;26.00;22.00;;;;;15.29;37.53;98619.72;4854857;28;102046;-81
2022/04/18 06:45:03;;;;;;;;;25.75;21.75;;;;;15.30;37.26;98621.41;4871908;28;102158;-81
2022/04/18 06:47:30;;;;;;;;;22.00;20.00;;;;;15.30;37.30;98623.28;4854586;28;104077;-81
2022/04/18 06:49:57;;;;;;;;;20.25;17.75;;;;;15.31;37.56;98616.78;4871625;28;102172;-81
2022/04/18 06:52:24;;;;;;;;;21.00;15.50;;;;;15.29;37.28;98610.72;4871229;28;102174;-81
2022/04/18 06:54:50;;;;;;;;;23.75;21.50;;;;;15.30;37.55;98613.22;4862187;28;102513;-81
2022/04/18 06:57:17;;;;;;;;;22.75;19.25;;;;;15.29;36.88;98608.00;4870502;28;104038;-81
2022/04/18 06:59:46;;;;;;;;;23.00;20.50;;;;;15.30;37.19;98607.78;4870389;28;102540;-81
2022/04/18 07:02:13;;;;;;;;;21.75;18.75;;;;;15.31;37.18;98600.44;4870915;28;102128;-81
2022/04/18 07:04:40;;;;;;;;;22.50;20.75;;;;;15.32;37.08;98604.81;4870512;28;102610;-81
2022/04/18 07:07:08;;;;;;;;;23.00;20.25;;;;;15.33;37.40;98603.75;4869781;28;104244;-81
2022/04/18 07:09:35;;;;;;;;;22.00;19.50;;;;;15.34;37.27;98602.69;4847460;28;102304;-81
2022/04/18 07:12:02;;;;;;;;;23.50;20.75;;;;;15.33;37.65;98598.28;4870594;28;102575;-81
2022/04/18 07:14:30;;;;;;;;;26.25;21.00;;;;;15.34;37.22;98599.97;4871583;28;102242;-81
2022/04/18 07:16:57;;;;;;;;;24.75;20.75;;;;;15.34;37.02;98595.34;4870395;28;104202;-81
2022/04/18 07:19:24;;;;;;;;;20.75;18.50;;;;;15.34;37.45;98594.53;4854447;28;102522;-81
2022/04/18 07:21:51;;;;;;;;;19.50;16.75;;;;;15.33;37.44;98593.69;4870242;28;102932;-81
2022/04/18 07:24:18;;;;;;;;;20.75;19.75;;;;;15.34;37.01;98587.19;4866302;28;102806;-81
2022/04/18 07:26:45;;;;;;;;;22.75;20.25;;;;;15.34;37.40;98591.78;4868421;28;103999;-81
2022/04/18 07:29:12;;;;;;;;;22.00;17.50;;;;;15.34;37.50;98591.78;4869080;28;102330;-81
2022/04/18 07:31:38;;;;;;;;;27.50;22.25;;;;;15.35;37.37;98591.56;4871882;28;102147;-81
2022/04/18 07:34:05;;;;;;;;;21.75;17.75;;;;;15.35;37.20;98590.75;4854664;28;102044;-81
2022/04/18 07:36:32;;;;;;;;;19.50;19.50;;;;;15.35;37.16;98582.56;4870280;28;103846;-81
2022/04/18 07:38:59;;;;;;;;;23.25;17.25;;;;;15.35;37.48;98579.84;4869021;28;102220;-81
2022/04/18 07:41:28;;;;;;;;;20.00;18.00;;;;;15.35;37.45;98582.56;4865969;28;102853;-81
2022/04/18 07:43:56;;;;;;;;;26.50;17.00;;;;;15.37;37.44;98581.25;4853043;28;102326;-81
2022/04/18 07:46:22;;;;;;;;;19.25;17.50;;;;;15.38;37.25;98590.25;4870540;28;104097;-81
2022/04/18 07:48:50;;;;;;;;;19.25;18.00;;;;;15.38;37.21;98579.38;4869191;28;102147;-81
2022/04/18 07:51:36;;;;;;;;;23.00;18.25;;;;;15.38;37.05;98580.19;4850279;28;102111;-81
2022/04/18 07:54:07;;;;;;;;;19.50;17.50;;;;;15.39;37.50;98570.13;4838475;28;102400;-81
2022/04/18 07:56:34;;;;;;;;;15.50;10.75;;;;;15.37;37.00;98569.53;4850955;28;104351;-81
2022/04/18 07:59:01;;;;;;;;;19.75;18.75;;;;;15.38;37.37;98573.91;4853060;28;102196;-81
2022/04/18 08:01:29;;;;;;;;;21.00;15.00;;;;;15.38;37.40;98572.03;4870462;28;102032;-81
2022/04/18 08:03:57;;;;;;;;;20.75;17.25;;;;;15.39;37.34;98578.31;4866859;28;102090;-81
2022/04/18 08:06:24;;;;;;;;;16.25;15.75;;;;;15.38;37.00;98563.84;4873482;28;104073;-81
2022/04/18 08:08:51;;;;;;;;;20.25;17.75;;;;;15.39;37.00;98564.69;4870094;28;102461;-81
2022/04/18 08:11:17;;;;;;;;;17.00;14.25;;;;;15.39;37.36;98570.97;4853320;28;102206;-81
2022/04/18 08:13:45;;;;;;;;;14.75;12.25;;;;;15.40;37.41;98569.09;4873964;28;103244;-81
2022/04/18 08:16:12;;;;;;;;;15.75;15.50;;;;;15.39;37.04;98565.53;4873310;28;104094;-80
2022/04/18 08:18:42;;;;;;;;;19.00;15.00;;;;;15.41;37.20;98565.25;4873424;28;102593;-81
2022/04/18 08:21:09;;;;;;;;;15.75;14.75;;;;;15.40;37.16;98560.91;4873626;28;101959;-81
2022/04/18 08:23:36;;;;;;;;;19.25;15.50;;;;;15.42;36.83;98564.22;4857694;28;102289;-81
2022/04/18 08:26:03;;;;;;;;;16.25;14.75;;;;;15.41;37.34;98574.28;4866067;28;104402;-81
2022/04/18 08:28:30;;;;;;;;;14.00;13.00;;;;;15.42;36.98;98564.22;4873848;28;103575;-81
2022/04/18 08:30:57;;;;;;;;;21.25;17.50;;;;;15.42;37.31;98559.59;4873235;28;102072;-81
2022/04/18 08:33:24;;;;;;;;;16.75;14.50;;;;;15.44;37.74;98567.53;4858110;28;102557;-81
2022/04/18 08:35:51;;;;;;;;;19.75;17.50;;;;;15.43;37.36;98565.88;4856145;28;104183;-81
2022/04/18 08:38:18;;;;;;;;;15.75;14.00;;;;;15.42;37.57;98567.78;4872706;28;102101;-81
2022/04/18 08:40:45;;;;;;;;;15.25;13.50;;;;;15.44;37.28;98567.53;4868176;28;102608;-81
2022/04/18 08:43:12;;;;;;;;;16.75;13.50;;;;;15.44;37.10;98562.09;4858287;28;102362;-81
2022/04/18 08:45:39;;;;;;;;;16.00;14.00;;;;;15.45;37.01;98561.00;4841029;28;104174;-81
2022/04/18 08:53:38;;;;;;;;;17.00;16.00;;;;;15.48;37.17;98542.31;4856544;28;102291;-81
2022/04/18 08:56:05;;;;;;;;;19.50;13.75;;;;;15.47;37.21;98535.22;4848141;28;103983;-81
2022/04/18 08:58:32;;;;;;;;;18.25;15.00;;;;;15.47;37.13;98531.66;4872974;28;102050;-81
2022/04/18 09:00:59;;;;;;;;;19.50;17.00;;;;;15.48;37.59;98533.31;4873048;28;102276;-81
2022/04/18 09:03:36;;;;;;;;;17.25;15.00;;;;;15.50;37.01;98533.88;4857866;28;102153;-80
2022/04/18 09:06:08;;;;;;;;;16.75;13.50;;;;;15.49;36.87;98532.25;4871762;28;104120;-81
2022/04/18 09:08:46;;;;;;;;;17.00;11.75;;;;;15.51;37.12;98535.59;4841665;28;101980;-81
2022/04/18 09:11:26;;;;;;;;;16.50;13.75;;;;;15.51;37.13;98535.59;4848334;28;102184;-81
2022/04/18 09:14:07;;;;;;;;;14.50;13.00;;;;;15.52;37.53;98529.91;4874714;28;102536;-81
2022/04/18 09:16:34;;;;;;;;;14.00;13.25;;;;;15.53;37.58;98528.03;4854160;28;103961;-81
2022/04/18 09:19:12;;;;;;;;;13.00;12.00;;;;;15.54;37.42;98532.38;4872657;28;102509;-81
2022/04/18 09:21:58;;;;;;;;;15.25;14.00;;;;;15.55;37.32;98536.78;4871500;28;101998;-81
2022/04/18 09:24:34;;;;;;;;;15.00;13.75;;;;;15.54;37.16;98533.22;4867813;28;102129;-81
2022/04/18 09:27:27;;;;;;;;;17.25;16.25;;;;;15.55;37.29;98526.72;4852791;28;105023;-81
2022/04/18 09:30:15;;;;;;;;;17.75;14.25;;;;;15.56;37.48;98522.09;4851230;28;102068;-81
2022/04/18 09:32:42;;;;;;;;;15.00;13.50;;;;;15.57;37.18;98523.75;4857647;28;102288;-81
2022/04/18 09:35:09;;;;;;;;;12.75;12.00;;;;;15.57;36.96;98529.22;4855139;28;102744;-81
2022/04/18 09:37:36;;;;;;;;;16.00;14.75;;;;;15.57;37.49;98521.88;4872108;28;104088;-81
2022/04/18 09:40:03;;;;;;;;;14.00;13.00;;;;;15.58;37.10;98519.94;4867249;28;102361;-81
2022/04/18 09:42:30;;;;;;;;;13.25;12.25;;;;;15.58;37.27;98515.34;4869581;28;102412;-81
2022/04/18 09:44:57;;;;;;;;;16.00;10.25;;;;;15.59;37.39;98513.44;4855910;28;102160;-81
2022/04/18 09:47:26;;;;;;;;;12.50;12.00;;;;;15.59;37.32;98516.16;4872124;28;104088;-81
2022/04/18 09:49:53;;;;;;;;;13.00;12.00;;;;;15.61;37.04;98509.44;4872323;28;102677;-81
2022/04/18 09:52:20;;;;;;;;;11.75;11.00;;;;;15.62;37.24;98508.34;4868995;28;103039;-81
2022/04/18 09:54:54;;;;;;;;;12.75;12.75;;;;;15.62;37.17;98494.72;4871690;28;102462;-81
2022/04/18 09:57:25;;;;;;;;;14.00;12.00;;;;;15.65;37.47;98511.69;4851375;28;104107;-81
2022/04/18 09:59:54;;;;;;;;;11.75;11.75;;;;;15.66;36.84;98510.63;4868241;28;102391;-81
2022/04/18 10:02:20;;;;;;;;;14.00;12.00;;;;;15.65;37.26;98498.88;4871666;28;102334;-81
2022/04/18 10:04:48;;;;;;;;;15.50;12.25;;;;;15.65;37.13;98496.16;4873111;28;102270;-81
2022/04/18 10:07:15;;;;;;;;;14.00;11.25;;;;;15.67;37.04;98496.72;4853444;28;103507;-81
2022/04/18 10:09:42;;;;;;;;;13.00;12.00;;;;;15.68;37.11;98479.31;4853852;28;102263;-81
2022/04/18 10:12:10;;;;;;;;;13.25;12.00;;;;;15.67;37.31;98488.56;4848398;28;102319;-81
2022/04/18 10:14:37;;;;;;;;;12.25;10.50;;;;;15.68;36.60;98487.50;4872236;28;102225;-81
2022/04/18 10:17:06;;;;;;;;;13.00;11.00;;;;;15.69;36.97;98480.97;4835482;28;103793;-81
2022/04/18 10:19:52;;;;;;;;;14.50;12.00;;;;;15.69;37.10;98480.97;4870928;28;104052;-81
2022/04/18 10:22:52;;;;;;;;;15.75;14.00;;;;;15.71;37.20;98481.59;4868453;28;102636;-81
2022/04/18 10:25:40;;;;;;;;;13.00;10.00;;;;;15.71;37.27;98476.13;4867636;28;102462;-81
2022/04/18 10:28:17;;;;;;;;;13.75;11.75;;;;;15.72;36.99;98477.78;4866437;28;103787;-81
2022/04/18 10:30:51;;;;;;;;;12.25;11.75;;;;;15.72;37.20;98477.78;4852952;28;102098;-81
2022/04/18 10:33:18;;;;;;;;;12.50;10.00;;;;;15.74;37.12;98480.28;4871528;28;103471;-81
2022/04/18 10:35:55;;;;;;;;;13.50;12.00;;;;;15.74;37.19;98464.75;4837688;28;102257;-81
2022/04/18 10:38:25;;;;;;;;;13.00;12.25;;;;;15.77;37.07;98466.16;4854519;28;104060;-81
2022/04/18 10:41:14;;;;;;;;;10.75;10.25;;;;;15.76;37.21;98454.41;4864319;28;102495;-81
2022/04/18 10:44:10;;;;;;;;;12.00;11.25;;;;;15.78;36.91;98454.19;4853191;28;102095;-81
2022/04/18 10:46:40;;;;;;;;;10.25;10.25;;;;;15.78;37.42;98465.94;4840608;28;102488;-81
2022/04/18 10:49:17;;;;;;;;;16.25;14.00;;;;;15.78;37.15;98455.03;4853465;28;104084;-81
2022/04/18 10:51:45;;;;;;;;;12.75;10.00;;;;;15.79;37.23;98451.25;4853184;28;102528;-81
2022/04/18 10:54:21;;;;;;;;;10.25;8.00;;;;;15.79;36.99;98450.41;4868861;28;102197;-81
2022/04/18 10:56:58;;;;;;;;;12.25;10.75;;;;;15.81;37.13;98453.72;4829680;28;103115;-81
2022/04/18 10:59:38;;;;;;;;;12.00;11.00;;;;;15.80;37.06;98454.81;4849721;28;104245;-81
2022/04/18 11:02:06;;;;;;;;;13.00;10.25;;;;;15.80;37.21;98452.91;4867753;28;101984;-81
2022/04/18 11:04:39;;;;;;;;;9.50;9.00;;;;;15.80;37.13;98444.72;4853143;28;102174;-81
2022/04/18 11:07:07;;;;;;;;;9.00;8.00;;;;;15.81;37.07;98445.53;4869710;28;102147;-81
2022/04/18 11:09:52;;;;;;;;;11.00;11.00;;;;;15.82;37.61;98444.47;4868337;28;104074;-81
2022/04/18 11:12:20;;;;;;;;;10.75;10.00;;;;;15.83;37.36;98444.25;4845695;28;104538;-81
2022/04/18 11:14:48;;;;;;;;;12.50;10.00;;;;;15.82;37.06;98439.84;4869996;28;103263;-81
2022/04/18 11:17:36;;;;;;;;;8.75;8.00;;;;;15.83;37.14;98435.22;4870507;28;102592;-81
2022/04/18 11:20:32;;;;;;;;;10.00;9.50;;;;;15.83;36.95;98435.22;4869201;28;104097;-81
2022/04/18 11:23:19;;;;;;;;;13.50;11.25;;;;;15.83;37.10;98430.59;4867307;28;102103;-81
2022/04/18 11:25:55;;;;;;;;;9.75;9.00;;;;;15.83;37.33;98425.16;4866442;28;102368;-81
2022/04/18 11:28:23;;;;;;;;;10.50;9.00;;;;;15.83;37.23;98433.34;4867674;28;102794;-81
2022/04/18 11:30:50;;;;;;;;;11.00;9.50;;;;;15.83;37.19;98429.78;4868934;28;104079;-81
2022/04/18 11:33:17;;;;;;;;;11.00;10.75;;;;;15.85;37.30;98433.09;4869442;28;102199;-81